createdAt,value
2023-03-24T00:00:37.066Z,2.63
2023-03-24T00:03:05.373Z,3.13
2023-03-24T00:05:34.820Z,2.50
2023-03-24T00:08:04.651Z,2.47
2023-03-24T00:10:34.830Z,2.70
2023-03-24T00:15:31.435Z,2.88
2023-03-24T00:17:59.552Z,2.35
2023-03-24T00:20:28.983Z,2.97
2023-03-24T00:22:58.737Z,2.87
2023-03-24T00:25:33.836Z,2.55
2023-03-24T00:28:02.947Z,2.92
2023-03-24T00:30:31.690Z,3.05
2023-03-24T00:33:01.850Z,3.10
2023-03-24T00:38:00.569Z,2.78
2023-03-24T00:40:29.501Z,3.05
2023-03-24T00:42:59.127Z,3.38
2023-03-24T00:45:30.141Z,3.30
2023-03-24T00:47:58.455Z,3.08
2023-03-24T00:50:27.599Z,3.00
2023-03-24T00:52:58.370Z,3.00
2023-03-24T00:57:57.103Z,2.83
2023-03-24T01:00:26.762Z,3.17
2023-03-24T01:02:57.110Z,2.67
2023-03-24T01:05:28.546Z,2.90
2023-03-24T01:07:58.258Z,3.00
2023-03-24T01:10:28.293Z,3.78
2023-03-24T01:12:58.166Z,3.17
2023-03-24T01:15:28.213Z,2.85
2023-03-24T01:17:56.512Z,2.72
2023-03-24T01:20:25.723Z,3.00
2023-03-24T01:22:53.687Z,2.95
2023-03-24T01:25:23.595Z,3.15
2023-03-24T01:27:54.065Z,3.40
2023-03-24T01:30:24.598Z,3.30
2023-03-24T01:32:53.882Z,2.80
2023-03-24T01:35:22.637Z,3.10
2023-03-24T01:37:50.829Z,3.20
2023-03-24T01:40:21.278Z,3.05
2023-03-24T01:42:51.165Z,3.65
2023-03-24T01:45:46.136Z,3.58
2023-03-24T01:48:17.409Z,3.30
2023-03-24T01:50:54.127Z,3.55
2023-03-24T01:53:22.733Z,3.30
2023-03-24T01:55:50.985Z,3.90
2023-03-24T01:58:22.413Z,3.45
2023-03-24T02:01:06.425Z,3.70
2023-03-24T02:03:58.140Z,3.53
2023-03-24T02:06:27.390Z,3.55
2023-03-24T02:09:01.839Z,3.60
2023-03-24T02:11:33.772Z,3.08
2023-03-24T02:14:07.089Z,3.53
2023-03-24T02:17:00.920Z,3.10
2023-03-24T02:19:48.950Z,2.85
2023-03-24T02:22:49.702Z,2.97
2023-03-24T02:25:51.354Z,3.22
2023-03-24T02:28:32.122Z,3.03
2023-03-24T02:31:34.848Z,3.15
2023-03-24T02:34:32.855Z,2.60
2023-03-24T02:37:27.573Z,3.17
2023-03-24T02:40:15.319Z,3.83
2023-03-24T02:42:54.140Z,3.97
2023-03-24T02:45:28.728Z,4.70
2023-03-24T02:48:09.295Z,4.45
2023-03-24T02:50:43.847Z,5.72
2023-03-24T02:53:18.885Z,5.57
2023-03-24T02:56:13.889Z,5.65
2023-03-24T02:58:48.334Z,5.85
2023-03-24T03:01:32.142Z,6.70
2023-03-24T03:04:18.151Z,7.65
2023-03-24T03:06:52.431Z,6.25
2023-03-24T03:09:23.137Z,6.95
2023-03-24T03:11:57.720Z,6.85
2023-03-24T03:14:30.405Z,7.43
2023-03-24T03:17:01.992Z,7.10
2023-03-24T03:19:34.430Z,7.72
2023-03-24T03:22:06.025Z,7.55
2023-03-24T03:24:41.173Z,7.32
2023-03-24T03:27:18.625Z,7.40
2023-03-24T03:29:50.921Z,7.30
2023-03-24T03:32:24.801Z,8.10
2023-03-24T03:34:58.214Z,7.90
2023-03-24T03:37:31.509Z,7.95
2023-03-24T03:40:03.315Z,8.27
2023-03-24T03:42:33.870Z,8.70
2023-03-24T03:45:01.958Z,8.27
2023-03-24T03:47:29.956Z,8.80
2023-03-24T03:49:58.209Z,8.23
2023-03-24T03:52:26.166Z,9.23
2023-03-24T03:54:55.921Z,8.95
2023-03-24T03:57:24.301Z,9.07
2023-03-24T04:00:19.927Z,8.98
2023-03-24T04:03:22.318Z,8.77
2023-03-24T04:06:01.929Z,8.93
2023-03-24T04:08:39.056Z,9.10
2023-03-24T04:11:37.260Z,8.85
2023-03-24T04:14:39.641Z,9.05
2023-03-24T04:17:57.498Z,8.32
2023-03-24T04:21:02.252Z,8.88
2023-03-24T04:23:44.659Z,9.23
2023-03-24T04:26:26.690Z,7.63
2023-03-24T04:29:09.931Z,7.78
2023-03-24T04:31:44.039Z,7.88
2023-03-24T04:34:21.304Z,8.25
2023-03-24T04:36:55.295Z,7.45
2023-03-24T04:39:46.891Z,7.15
2023-03-24T04:42:26.574Z,7.80
2023-03-24T04:44:57.652Z,7.60
2023-03-24T04:47:51.003Z,7.22
2023-03-24T04:50:53.776Z,7.15
2023-03-24T04:53:22.173Z,6.20
2023-03-24T04:56:05.832Z,6.68
2023-03-24T04:58:59.913Z,6.80
2023-03-24T05:01:30.232Z,6.97
2023-03-24T05:04:17.117Z,6.15
2023-03-24T05:06:47.151Z,6.30
2023-03-24T05:09:21.343Z,6.63
2023-03-24T05:11:49.747Z,6.68
2023-03-24T05:14:18.217Z,6.80
2023-03-24T05:16:46.349Z,6.85
2023-03-24T05:19:16.040Z,6.55
2023-03-24T05:21:43.900Z,7.03
2023-03-24T05:24:13.545Z,6.38
2023-03-24T05:26:41.986Z,6.88
2023-03-24T05:29:15.891Z,7.15
2023-03-24T05:31:45.102Z,6.95
2023-03-24T05:34:22.662Z,7.30
2023-03-24T05:37:17.752Z,6.95
2023-03-24T05:39:51.372Z,7.65
2023-03-24T05:42:36.472Z,8.88
2023-03-24T05:45:06.568Z,8.88
2023-03-24T05:47:34.664Z,8.50
2023-03-24T05:50:02.696Z,8.27
2023-03-24T05:52:33.126Z,10.60
2023-03-24T05:55:19.348Z,10.25
2023-03-24T05:57:57.302Z,13.05
2023-03-24T06:00:52.176Z,9.80
2023-03-24T06:03:34.435Z,8.73
2023-03-24T06:06:08.893Z,8.88
2023-03-24T06:08:38.345Z,8.57
2023-03-24T06:11:08.159Z,8.60
2023-03-24T06:13:46.397Z,6.10
2023-03-24T06:16:14.345Z,6.50
2023-03-24T06:18:53.220Z,7.03
2023-03-24T06:21:50.540Z,5.28
2023-03-24T06:24:21.547Z,3.13
2023-03-24T06:26:51.376Z,2.17
2023-03-24T06:29:19.588Z,2.30
2023-03-24T06:31:49.758Z,2.20
2023-03-24T06:36:58.342Z,1.80
2023-03-24T06:39:26.332Z,2.08
2023-03-24T06:41:55.948Z,2.00
2023-03-24T06:44:24.126Z,1.90
2023-03-24T06:46:51.956Z,2.65
2023-03-24T06:49:19.870Z,2.10
2023-03-24T06:51:47.823Z,3.00
2023-03-24T06:54:18.483Z,2.38
2023-03-24T06:56:46.355Z,2.38
2023-03-24T06:59:17.729Z,3.25
2023-03-24T07:01:48.225Z,3.58
2023-03-24T07:04:27.694Z,4.13
2023-03-24T07:07:38.070Z,4.53
2023-03-24T07:10:13.846Z,4.70
2023-03-24T07:12:41.822Z,4.25
2023-03-24T07:15:12.086Z,4.22
2023-03-24T07:17:42.190Z,4.55
2023-03-24T07:20:18.192Z,3.70
2023-03-24T07:22:57.414Z,3.58
2023-03-24T07:25:26.148Z,3.90
2023-03-24T07:28:03.846Z,4.45
2023-03-24T07:30:39.692Z,3.92
2023-03-24T07:33:21.126Z,3.55
2023-03-24T07:35:49.088Z,3.33
2023-03-24T07:38:18.187Z,3.17
2023-03-24T07:40:49.338Z,2.78
2023-03-24T07:43:17.174Z,2.38
2023-03-24T07:46:19.099Z,2.30
2023-03-24T07:48:47.796Z,1.73
2023-03-24T07:51:19.859Z,1.63
2023-03-24T07:54:03.346Z,1.48
2023-03-24T07:56:38.534Z,1.50
2023-03-24T07:59:09.620Z,1.27
2023-03-24T08:01:55.953Z,1.80
2023-03-24T08:04:40.022Z,1.95
2023-03-24T08:07:31.120Z,1.80
2023-03-24T08:09:58.942Z,1.83
2023-03-24T08:12:27.051Z,1.88
2023-03-24T08:14:54.890Z,2.17
2023-03-24T08:17:24.430Z,2.22
2023-03-24T08:19:59.501Z,2.38
2023-03-24T08:22:29.195Z,3.10
2023-03-24T08:24:57.060Z,2.20
2023-03-24T08:27:24.899Z,2.75
2023-03-24T08:29:52.688Z,2.92
2023-03-24T08:32:20.548Z,2.72
2023-03-24T08:34:49.711Z,2.47
2023-03-24T08:37:17.528Z,2.60
2023-03-24T08:39:45.606Z,3.20
2023-03-24T08:42:13.432Z,2.72
2023-03-24T08:44:41.855Z,2.85
2023-03-24T08:47:09.658Z,2.78
2023-03-24T08:49:37.947Z,3.05
2023-03-24T08:52:08.391Z,2.85
2023-03-24T08:54:37.134Z,3.08
2023-03-24T08:57:05.270Z,3.25
2023-03-24T08:59:33.119Z,2.85
2023-03-24T09:02:01.254Z,2.50
2023-03-24T09:04:29.171Z,2.30
2023-03-24T09:07:02.248Z,2.22
2023-03-24T09:09:32.211Z,2.90
2023-03-24T09:12:00.116Z,2.28
2023-03-24T09:14:27.956Z,2.58
2023-03-24T09:16:56.143Z,2.60
2023-03-24T09:19:24.026Z,2.80
2023-03-24T09:21:51.874Z,2.55
2023-03-24T09:24:19.685Z,2.70
2023-03-24T09:26:48.879Z,2.83
2023-03-24T09:29:16.725Z,3.17
2023-03-24T09:31:44.591Z,2.97
2023-03-24T09:34:12.444Z,2.40
2023-03-24T09:36:40.258Z,2.40
2023-03-24T09:39:08.712Z,2.30
2023-03-24T09:41:36.631Z,2.42
2023-03-24T09:44:13.889Z,2.85
2023-03-24T09:46:46.387Z,3.25
2023-03-24T09:49:18.597Z,2.90
2023-03-24T09:51:47.651Z,3.50
2023-03-24T09:54:22.384Z,3.53
2023-03-24T09:56:53.926Z,3.33
2023-03-24T09:59:32.057Z,3.20
2023-03-24T10:02:00.025Z,3.50
2023-03-24T10:04:32.058Z,3.55
2023-03-24T10:07:08.585Z,3.38
2023-03-24T10:09:37.238Z,3.95
2023-03-24T10:12:21.436Z,3.45
2023-03-24T10:15:05.591Z,2.90
2023-03-24T10:17:42.981Z,4.20
2023-03-24T10:20:21.715Z,4.07
2023-03-24T10:23:00.230Z,4.18
2023-03-24T10:25:45.890Z,5.15
2023-03-24T10:28:20.862Z,4.13
2023-03-24T10:30:52.660Z,4.82
2023-03-24T10:33:20.919Z,4.38
2023-03-24T10:35:57.002Z,4.30
2023-03-24T10:38:25.191Z,4.20
2023-03-24T10:40:54.835Z,4.15
2023-03-24T10:43:27.139Z,4.60
2023-03-24T10:45:59.234Z,3.83
2023-03-24T10:48:44.204Z,3.72
2023-03-24T10:51:29.423Z,4.15
2023-03-24T10:54:12.598Z,4.97
2023-03-24T10:56:42.633Z,4.53
2023-03-24T10:59:22.890Z,4.47
2023-03-24T11:01:57.477Z,4.80
2023-03-24T11:04:25.549Z,4.60
2023-03-24T11:07:05.518Z,4.53
2023-03-24T11:09:40.709Z,4.10
2023-03-24T11:12:22.189Z,3.75
2023-03-24T11:14:50.012Z,3.97
2023-03-24T11:17:23.009Z,3.38
2023-03-24T11:19:53.520Z,3.65
2023-03-24T11:22:21.917Z,3.63
2023-03-24T11:24:53.502Z,3.67
2023-03-24T11:27:21.486Z,3.67
2023-03-24T11:29:53.825Z,4.00
2023-03-24T11:32:29.873Z,3.63
2023-03-24T11:35:06.194Z,3.80
2023-03-24T11:37:36.084Z,4.03
2023-03-24T11:40:18.599Z,3.50
2023-03-24T11:42:48.028Z,3.30
2023-03-24T11:45:29.202Z,3.67
2023-03-24T11:47:59.970Z,3.97
2023-03-24T11:50:31.331Z,4.25
2023-03-24T11:53:06.211Z,4.20
2023-03-24T11:55:38.075Z,4.25
2023-03-24T11:58:13.653Z,4.20
2023-03-24T12:00:45.649Z,3.70
2023-03-24T12:04:00.109Z,4.15
2023-03-24T12:06:41.505Z,3.17
2023-03-24T12:09:20.984Z,2.88
2023-03-24T12:12:09.473Z,3.20
2023-03-24T12:14:52.112Z,3.60
2023-03-24T12:17:23.911Z,3.55
2023-03-24T12:20:18.201Z,3.85
2023-03-24T12:22:57.801Z,3.83
2023-03-24T12:25:39.190Z,3.35
2023-03-24T12:28:25.218Z,4.13
2023-03-24T12:31:04.517Z,3.40
2023-03-24T12:33:44.937Z,3.90
2023-03-24T12:36:32.589Z,3.53
2023-03-24T12:39:09.662Z,3.63
2023-03-24T12:42:08.882Z,3.50
2023-03-24T12:44:56.957Z,3.08
2023-03-24T12:47:43.514Z,3.10
2023-03-24T12:50:26.069Z,3.20
2023-03-24T12:53:08.745Z,3.22
2023-03-24T12:55:44.114Z,3.58
2023-03-24T12:58:19.214Z,3.33
2023-03-24T13:01:02.610Z,3.00
2023-03-24T13:03:38.735Z,3.22
2023-03-24T13:06:17.704Z,2.85
2023-03-24T13:08:57.856Z,3.30
2023-03-24T13:11:35.715Z,3.28
2023-03-24T13:14:06.441Z,3.03
2023-03-24T13:16:39.172Z,2.90
2023-03-24T13:19:18.902Z,3.13
2023-03-24T13:21:47.832Z,3.22
2023-03-24T13:24:19.367Z,2.92
2023-03-24T13:26:55.569Z,3.08
2023-03-24T13:29:48.445Z,3.35
2023-03-24T13:32:26.709Z,2.97
2023-03-24T13:34:59.877Z,3.50
2023-03-24T13:37:34.091Z,3.38
2023-03-24T13:40:11.453Z,3.20
2023-03-24T13:42:46.527Z,2.97
2023-03-24T13:45:27.066Z,3.05
2023-03-24T13:48:06.520Z,2.67
2023-03-24T13:50:35.724Z,3.10
2023-03-24T13:53:08.548Z,2.72
2023-03-24T13:55:40.892Z,2.78
2023-03-24T13:58:16.487Z,2.35
2023-03-24T14:01:06.784Z,2.28
2023-03-24T14:06:06.329Z,2.50
2023-03-24T14:08:43.831Z,2.13
2023-03-24T14:11:45.582Z,1.67
2023-03-24T14:14:24.104Z,2.13
2023-03-24T14:17:03.100Z,2.72
2023-03-24T14:19:32.608Z,2.33
2023-03-24T14:22:11.350Z,2.10
2023-03-24T14:24:40.295Z,1.80
2023-03-24T14:27:42.436Z,1.90
2023-03-24T14:30:20.228Z,2.55
2023-03-24T14:32:50.165Z,2.15
2023-03-24T14:35:30.840Z,2.70
2023-03-24T14:38:01.611Z,2.13
2023-03-24T14:40:34.617Z,1.88
2023-03-24T14:43:24.666Z,1.85
2023-03-24T14:45:58.331Z,1.98
2023-03-24T14:48:36.123Z,2.42
2023-03-24T14:51:13.848Z,1.45
2023-03-24T14:53:42.434Z,2.40
2023-03-24T14:56:15.858Z,1.42
2023-03-24T14:58:48.669Z,1.80
2023-03-24T15:01:18.190Z,1.77
2023-03-24T15:03:56.652Z,2.20
2023-03-24T15:06:25.081Z,1.80
2023-03-24T15:08:54.113Z,1.88
2023-03-24T15:11:25.979Z,2.20
2023-03-24T15:13:57.334Z,2.47
2023-03-24T15:16:27.034Z,2.00
2023-03-24T15:19:01.817Z,1.67
2023-03-24T15:21:34.202Z,2.13
2023-03-24T15:24:03.562Z,1.90
2023-03-24T15:26:32.872Z,3.07
2023-03-24T15:29:06.334Z,1.80
2023-03-24T15:31:34.619Z,1.60
2023-03-24T15:34:07.945Z,2.10
2023-03-24T15:36:40.929Z,1.70
2023-03-24T15:39:20.828Z,1.88
2023-03-24T15:41:52.845Z,1.80
2023-03-24T15:44:25.910Z,2.45
2023-03-24T15:46:56.621Z,2.83
2023-03-24T15:49:27.637Z,3.03
2023-03-24T15:52:00.306Z,2.45
2023-03-24T15:54:30.988Z,1.88
2023-03-24T15:57:04.543Z,5.68
2023-03-24T15:59:38.122Z,1.88
2023-03-24T16:02:13.806Z,3.88
2023-03-24T16:04:41.841Z,1.90
2023-03-24T16:07:29.544Z,1.65
2023-03-24T16:10:04.637Z,1.90
2023-03-24T16:12:34.237Z,1.70
2023-03-24T16:15:05.622Z,1.98
2023-03-24T16:17:34.039Z,1.88
2023-03-24T16:20:01.938Z,1.40
2023-03-24T16:22:29.871Z,1.60
2023-03-24T16:24:57.909Z,1.80
2023-03-24T16:27:25.784Z,1.60
2023-03-24T16:29:53.740Z,1.70
2023-03-24T16:32:23.029Z,1.33
2023-03-24T16:34:51.036Z,1.38
2023-03-24T16:37:19.459Z,1.30
2023-03-24T16:39:47.418Z,2.03
2023-03-24T16:42:15.358Z,1.63
2023-03-24T16:44:43.841Z,2.03
2023-03-24T16:47:12.155Z,1.52
2023-03-24T16:49:41.368Z,1.77
2023-03-24T16:52:13.123Z,2.17
2023-03-24T16:54:41.054Z,3.05
2023-03-24T16:57:09.016Z,7.78
2023-03-24T16:59:36.915Z,2.20
2023-03-24T17:02:05.931Z,2.05
2023-03-24T17:04:35.401Z,2.03
2023-03-24T17:07:04.694Z,1.90
2023-03-24T17:09:35.245Z,1.67
2023-03-24T17:12:04.231Z,2.00
2023-03-24T17:14:32.176Z,1.75
2023-03-24T17:17:02.774Z,1.92
2023-03-24T17:19:31.030Z,6.18
2023-03-24T17:22:02.097Z,12.15
2023-03-24T17:24:35.686Z,2.92
2023-03-24T17:27:04.069Z,1.95
2023-03-24T17:29:31.971Z,1.98
2023-03-24T17:31:59.846Z,2.90
2023-03-24T17:34:27.732Z,2.13
2023-03-24T17:36:55.569Z,2.70
2023-03-24T17:39:23.380Z,2.17
2023-03-24T17:41:53.576Z,2.58
2023-03-24T17:44:21.374Z,1.75
2023-03-24T17:46:49.220Z,3.95
2023-03-24T17:49:17.120Z,2.20
2023-03-24T17:51:44.907Z,3.10
2023-03-24T17:54:13.625Z,5.60
2023-03-24T17:56:41.459Z,2.70
2023-03-24T17:59:10.723Z,2.38
2023-03-24T18:01:39.254Z,2.40
2023-03-24T18:04:07.671Z,2.70
2023-03-24T18:06:35.615Z,3.15
2023-03-24T18:09:03.437Z,3.70
2023-03-24T18:11:31.245Z,2.30
2023-03-24T18:13:59.173Z,1.70
2023-03-24T18:16:30.735Z,2.90
2023-03-24T18:19:00.577Z,2.42
2023-03-24T18:21:28.920Z,1.92
2023-03-24T18:23:57.205Z,1.98
2023-03-24T18:26:25.711Z,1.70
2023-03-24T18:28:53.595Z,2.83
2023-03-24T18:31:23.349Z,3.05
2023-03-24T18:33:54.305Z,2.38
2023-03-24T18:36:26.378Z,1.90
2023-03-24T18:38:58.271Z,1.88
2023-03-24T18:41:28.295Z,1.80
2023-03-24T18:43:57.086Z,1.80
2023-03-24T18:46:25.358Z,2.45
2023-03-24T18:48:54.722Z,2.25
2023-03-24T18:51:23.479Z,2.33
2023-03-24T18:53:51.268Z,1.50
2023-03-24T18:56:19.947Z,1.88
2023-03-24T18:58:48.721Z,2.15
2023-03-24T19:01:22.458Z,2.30
2023-03-24T19:03:52.020Z,3.75
2023-03-24T19:06:21.402Z,2.37
2023-03-24T19:08:51.979Z,2.27
2023-03-24T19:11:19.999Z,2.80
2023-03-24T19:13:50.626Z,1.73
2023-03-24T19:16:20.128Z,5.38
2023-03-24T19:18:50.579Z,2.33
2023-03-24T19:21:18.790Z,3.25
2023-03-24T19:23:49.934Z,2.60
2023-03-24T19:26:20.135Z,2.20
2023-03-24T19:28:48.391Z,2.40
2023-03-24T19:31:19.163Z,4.03
2023-03-24T19:33:48.159Z,1.95
2023-03-24T19:36:16.413Z,4.22
2023-03-24T19:38:44.275Z,7.05
2023-03-24T19:41:15.517Z,2.85
2023-03-24T19:43:43.885Z,3.53
2023-03-24T19:46:12.098Z,2.50
2023-03-24T19:48:40.017Z,10.70
2023-03-24T19:51:07.899Z,16.85
2023-03-24T19:53:35.753Z,5.40
2023-03-24T19:56:04.450Z,7.78
2023-03-24T19:58:33.679Z,2.88
2023-03-24T20:01:01.761Z,1.70
2023-03-24T20:03:29.965Z,4.18
2023-03-24T20:05:57.846Z,2.63
2023-03-24T20:08:26.081Z,2.30
2023-03-24T20:10:53.951Z,1.92
2023-03-24T20:13:24.057Z,2.13
2023-03-24T20:15:53.693Z,2.63
2023-03-24T20:18:21.669Z,1.88
2023-03-24T20:20:49.638Z,3.15
2023-03-24T20:23:17.378Z,2.40
2023-03-24T20:25:45.458Z,1.90
2023-03-24T20:28:13.334Z,6.50
2023-03-24T20:30:42.747Z,3.78
2023-03-24T20:33:12.029Z,4.73
2023-03-24T20:35:40.777Z,1.80
2023-03-24T20:38:08.676Z,2.22
2023-03-24T20:40:36.517Z,3.03
2023-03-24T20:43:04.331Z,1.83
2023-03-24T20:45:32.311Z,2.22
2023-03-24T20:48:00.308Z,2.42
2023-03-24T20:50:29.996Z,2.10
2023-03-24T20:52:58.943Z,2.00
2023-03-24T20:55:26.956Z,1.08
2023-03-24T20:57:55.916Z,2.13
2023-03-24T21:00:24.149Z,1.45
2023-03-24T21:02:52.379Z,1.35
2023-03-24T21:05:20.570Z,1.30
2023-03-24T21:07:50.026Z,1.00
2023-03-24T21:10:17.933Z,1.20
2023-03-24T21:12:54.531Z,1.10
2023-03-24T21:15:24.869Z,1.00
2023-03-24T21:20:21.082Z,1.15
2023-03-24T21:22:55.306Z,0.80
2023-03-24T21:25:25.219Z,0.90
2023-03-24T21:27:53.217Z,1.17
2023-03-24T21:30:21.811Z,2.65
2023-03-24T21:32:51.709Z,3.22
2023-03-24T21:35:20.800Z,2.63
2023-03-24T21:37:53.453Z,1.85
2023-03-24T21:40:23.618Z,1.40
2023-03-24T21:42:53.548Z,1.10
2023-03-24T21:45:24.130Z,1.20
2023-03-24T21:47:54.927Z,1.30
2023-03-24T21:50:23.983Z,1.60
2023-03-24T21:52:54.926Z,10.30
2023-03-24T21:55:25.306Z,1.38
2023-03-24T21:57:53.190Z,1.42
2023-03-24T22:00:22.924Z,1.58
2023-03-24T22:02:52.504Z,1.17
2023-03-24T22:05:22.625Z,1.77
2023-03-24T22:07:51.443Z,1.50
2023-03-24T22:10:22.764Z,1.65
2023-03-24T22:12:51.201Z,1.30
2023-03-24T22:15:19.795Z,1.77
2023-03-24T22:17:48.160Z,1.42
2023-03-24T22:20:16.587Z,1.35
2023-03-24T22:22:44.475Z,1.27
2023-03-24T22:25:14.589Z,1.63
2023-03-24T22:27:43.843Z,1.50
2023-03-24T22:30:13.976Z,1.35
2023-03-24T22:32:42.274Z,1.40
2023-03-24T22:35:10.764Z,1.33
2023-03-24T22:37:39.012Z,1.65
2023-03-24T22:40:09.152Z,1.40
2023-03-24T22:42:37.128Z,1.20
2023-03-24T22:45:07.654Z,1.60
2023-03-24T22:47:36.379Z,1.50
2023-03-24T22:50:05.016Z,1.10
2023-03-24T22:52:33.500Z,1.67
2023-03-24T22:55:01.614Z,1.70
2023-03-24T22:57:29.868Z,2.28
2023-03-24T23:00:01.868Z,1.17
2023-03-24T23:02:31.510Z,1.63
2023-03-24T23:04:59.398Z,1.75
2023-03-24T23:07:28.793Z,1.40
2023-03-24T23:09:59.408Z,1.30
2023-03-24T23:12:27.790Z,1.25
2023-03-24T23:14:55.881Z,1.15
2023-03-24T23:17:25.245Z,1.30
2023-03-24T23:19:54.741Z,1.27
2023-03-24T23:22:22.952Z,1.33
2023-03-24T23:25:00.420Z,1.23
2023-03-24T23:27:34.349Z,1.37
2023-03-24T23:30:02.840Z,1.38
2023-03-24T23:32:33.995Z,1.40
2023-03-24T23:35:03.497Z,1.55
2023-03-24T23:37:32.503Z,1.40
2023-03-24T23:40:02.459Z,1.33
2023-03-24T23:42:33.373Z,1.05
2023-03-24T23:45:01.290Z,1.30
2023-03-24T23:47:32.534Z,1.30
2023-03-24T23:50:00.657Z,1.10
2023-03-24T23:52:30.114Z,1.00
2023-03-24T23:54:58.441Z,1.33
2023-03-24T23:57:26.282Z,1.20
2023-03-24T23:59:54.842Z,1.27
